Time;durP1;ratioP1;P1;durP2;ratioP2;P2;SDS_P1;SDS_P2;PMS_P1;PMS_P2;Temp;Humidity;BMP_temperature;BMP_pressure;BME280_temperature;BME280_humidity;BME280_pressure;Samples;Min_cycle;Max_cycle;Signal;HPM_P1;HPM_P2
2022/05/15 00:00:38;;;;;;;2.70;2.10;;;20.10;46.90;;;20.65;35.06;98914.13;4928312;28;113896;-93
2022/05/15 00:03:16;;;;;;;5.13;2.83;;;20.10;47.10;;;20.58;35.44;98919.66;4913452;28;112515;-93
2022/05/15 00:05:45;;;;;;;3.60;2.80;;;19.70;47.10;;;20.51;35.46;98905.44;4915395;28;124471;-91
2022/05/15 00:08:12;;;;;;;3.80;2.90;;;20.00;47.60;;;20.46;35.71;98905.75;4913381;28;122805;-91
2022/05/15 00:10:41;;;;;;;3.57;2.80;;;21.10;48.80;;;20.41;35.46;98903.28;4930090;28;115215;-93
2022/05/15 00:13:09;;;;;;;4.40;2.87;;;19.90;47.90;;;20.38;35.83;98909.66;4914513;28;115450;-93
2022/05/15 00:15:36;;;;;;;3.90;2.53;;;19.80;48.10;;;20.34;36.09;98908.75;4928591;28;125038;-93
2022/05/15 00:18:04;;;;;;;3.37;2.50;;;19.80;48.20;;;20.29;36.24;98907.09;4900145;28;122539;-93
2022/05/15 00:20:31;;;;;;;3.37;2.53;;;19.80;48.40;;;20.25;36.43;98895.00;4927848;28;115009;-95
2022/05/15 00:22:58;;;;;;;5.50;3.27;;;19.70;48.50;;;20.20;36.39;98898.94;4890747;28;113025;-93
2022/05/15 00:25:24;;;;;;;3.27;2.43;;;19.70;48.60;;;20.15;36.55;98884.38;4934695;28;123607;-93
2022/05/15 00:27:51;;;;;;;5.33;2.67;;;19.60;48.70;;;20.11;36.70;98889.94;4964493;28;122873;-93
2022/05/15 00:30:21;;;;;;;3.63;3.00;;;19.60;48.90;;;20.08;36.64;98894.31;4949276;28;114189;-92
2022/05/15 00:32:49;;;;;;;3.67;2.90;;;19.60;49.10;;;20.06;36.75;98898.69;4933660;28;113852;-94
2022/05/15 00:35:35;;;;;;;4.53;2.60;;;19.60;49.30;;;20.02;37.02;98901.44;4947881;28;122420;-95
2022/05/15 00:38:04;;;;;;;3.10;2.60;;;19.50;49.40;;;20.00;36.99;98897.38;4950861;28;122946;-95
2022/05/15 00:40:32;;;;;;;3.20;2.43;;;19.50;49.70;;;19.96;37.17;98902.94;4941406;28;114178;-95
2022/05/15 00:42:58;;;;;;;3.53;2.70;;;19.50;49.80;;;19.94;37.40;98896.88;4948147;28;113949;-92
2022/05/15 00:45:25;;;;;;;3.03;2.57;;;19.40;49.80;;;19.92;37.36;98895.63;4944157;28;123516;-93
2022/05/15 00:47:52;;;;;;;2.93;2.40;;;20.60;51.00;;;19.90;37.28;98890.38;4944567;28;122311;-93
2022/05/15 00:50:28;;;;;;;4.47;2.90;;;19.40;50.10;;;19.87;37.52;98891.13;4943235;28;113962;-94
2022/05/15 00:53:00;;;;;;;3.50;2.80;;;19.30;50.10;;;19.84;37.45;98894.69;4941673;28;114572;-94
2022/05/15 00:55:42;;;;;;;3.57;2.27;;;19.30;50.20;;;19.80;37.58;98883.41;4986832;28;123948;-94
2022/05/15 00:58:17;;;;;;;3.13;2.70;;;19.30;50.30;;;19.76;37.59;98879.72;4965259;28;124161;-93
2022/05/15 01:00:44;;;;;;;3.43;2.40;;;19.20;50.30;;;19.73;37.66;98888.06;4961559;28;114390;-92
2022/05/15 01:03:15;;;;;;;2.93;2.43;;;19.20;50.40;;;19.69;37.87;98887.16;4970635;28;115175;-93
2022/05/15 01:05:54;;;;;;;3.63;2.30;;;19.20;50.50;;;19.67;38.11;98892.38;4959713;28;123998;-95
2022/05/15 01:08:23;;;;;;;4.93;2.30;;;19.10;50.60;;;19.61;37.96;98878.63;4963732;28;123984;-93
2022/05/15 01:10:55;;;;;;;2.90;2.07;;;19.10;50.60;;;19.59;37.90;98875.38;4967446;28;113649;-94
2022/05/15 01:13:28;;;;;;;3.87;1.97;;;19.10;50.70;;;19.58;37.76;98886.94;4962543;28;113393;-93
2022/05/15 01:16:19;;;;;;;2.70;2.30;;;19.10;50.80;;;19.55;37.83;98879.28;4964938;28;123967;-94
2022/05/15 01:18:47;;;;;;;3.50;2.20;;;19.00;50.70;;;19.52;37.92;98878.00;4986949;28;123505;-92
2022/05/15 01:21:35;;;;;;;3.00;2.20;;;19.00;50.80;;;19.50;37.90;98888.78;4969589;28;112960;-94
2022/05/15 01:24:05;;;;;;;3.00;2.13;;;18.90;50.70;;;19.46;38.02;98881.50;4973178;28;114135;-93
2022/05/15 01:26:35;;;;;;;3.27;2.43;;;18.90;50.80;;;19.41;37.98;98886.22;4994980;28;122778;-93
2022/05/15 01:29:05;;;;;;;3.10;1.90;;;18.90;50.80;;;19.38;37.87;98881.34;4972452;28;123496;-92
2022/05/15 01:31:32;;;;;;;2.77;2.03;;;18.80;50.70;;;19.35;37.85;98884.91;4969156;28;114267;-92
2022/05/15 01:33:59;;;;;;;2.10;1.90;;;18.80;50.70;;;19.32;37.85;98870.81;4955538;28;114177;-96
2022/05/15 01:36:26;;;;;;;2.10;1.80;;;18.80;51.30;;;19.28;38.03;98876.34;4960761;28;124704;-92
2022/05/15 01:38:56;;;;;;;2.93;2.10;;;18.70;50.70;;;19.26;38.10;98878.69;4962878;28;124616;-93
2022/05/15 01:41:25;;;;;;;2.40;1.80;;;18.70;50.70;;;19.23;37.92;98873.81;4951244;28;114501;-93
2022/05/15 01:43:53;;;;;;;2.70;1.70;;;18.70;50.80;;;19.20;38.00;98880.16;4965945;28;114116;-94
2022/05/15 01:46:26;;;;;;;2.70;2.20;;;18.60;50.80;;;19.14;38.04;98874.06;4960349;28;123186;-94
2022/05/15 01:48:54;;;;;;;2.87;2.10;;;18.60;50.90;;;19.11;38.39;98885.19;4952586;28;122569;-94
2022/05/15 01:51:22;;;;;;;2.40;2.10;;;18.60;51.10;;;19.09;38.41;98879.13;4966416;28;115196;-93
2022/05/15 01:53:49;;;;;;;3.50;2.07;;;18.50;51.10;;;19.06;38.32;98885.47;4988362;28;115381;-94
2022/05/15 01:56:15;;;;;;;2.60;1.90;;;18.40;51.20;;;19.02;38.74;98881.78;4960302;28;123743;-93
2022/05/15 01:58:42;;;;;;;2.47;2.03;;;18.50;51.40;;;18.99;38.55;98880.50;4963908;28;124128;-94
2022/05/15 02:01:08;;;;;;;2.50;2.00;;;18.40;51.40;;;18.97;38.55;98877.28;4967713;28;114236;-94
2022/05/15 02:03:35;;;;;;;3.17;2.10;;;18.40;51.60;;;18.93;38.72;98877.19;4978153;28;112971;-93
2022/05/15 02:06:03;;;;;;;2.20;1.93;;;18.40;51.70;;;18.89;38.85;98869.91;4958831;28;124080;-93
2022/05/15 02:08:33;;;;;;;2.80;2.10;;;18.30;51.70;;;18.87;38.89;98870.28;4958134;28;123753;-93
2022/05/15 02:11:00;;;;;;;3.63;2.40;;;18.30;51.90;;;18.84;38.82;98873.81;4963835;28;114521;-91
2022/05/15 02:13:27;;;;;;;3.40;2.37;;;18.30;52.00;;;18.81;39.05;98868.94;4970839;28;113073;-93
2022/05/15 02:15:53;;;;;;;7.70;2.30;;;18.20;52.10;;;18.80;39.17;98872.91;4961103;28;123219;-94
2022/05/15 02:18:20;;;;;;;3.17;1.93;;;18.20;52.20;;;18.77;39.20;98870.84;4990587;28;126141;-93
2022/05/15 02:20:47;;;;;;;2.53;1.80;;;18.20;52.30;;;18.75;39.25;98865.63;4965537;28;114237;-94
2022/05/15 02:23:14;;;;;;;2.80;2.03;;;18.20;52.40;;;18.72;39.31;98871.09;4975228;28;114028;-93
2022/05/15 02:25:41;;;;;;;2.90;2.17;;;18.20;52.50;;;18.69;39.32;98866.22;4954996;28;124186;-95
2022/05/15 02:28:11;;;;;;;2.13;1.93;;;18.10;52.50;;;18.65;39.44;98868.94;4963786;28;123062;-94
2022/05/15 02:30:38;;;;;;;2.73;2.30;;;18.10;52.60;;;18.62;39.47;98869.69;4965547;28;113643;-94
2022/05/15 02:33:05;;;;;;;2.50;1.77;;;18.10;52.70;;;18.60;39.53;98874.03;4966461;28;113676;-94
2022/05/15 02:35:33;;;;;;;2.30;1.87;;;18.10;53.00;;;18.60;39.60;98879.63;4960936;28;123105;-94
2022/05/15 02:37:59;;;;;;;3.27;1.97;;;18.00;52.90;;;18.56;39.79;98876.72;4962873;28;123791;-95
2022/05/15 02:40:26;;;;;;;4.80;2.20;;;18.00;53.00;;;18.52;40.06;98873.03;4959382;28;114340;-94
2022/05/15 02:42:56;;;;;;;2.33;1.93;;;17.90;53.00;;;18.50;39.83;98879.00;4963977;28;116181;-93
2022/05/15 02:45:24;;;;;;;3.43;2.60;;;18.00;53.30;;;18.48;40.02;98877.72;4971013;28;124133;-94
2022/05/15 02:47:51;;;;;;;3.80;2.33;;;17.90;53.30;;;18.47;40.06;98882.50;4959535;28;123864;-93
2022/05/15 02:53:25;;;;;;;4.07;2.47;;;17.90;53.40;;;18.40;40.26;98873.13;4895379;28;113555;-93
2022/05/15 02:55:52;;;;;;;2.63;2.33;;;17.80;53.60;;;18.38;40.29;98881.09;4873515;28;123465;-93
2022/05/15 02:58:18;;;;;;;2.50;1.70;;;17.80;53.70;;;18.36;40.25;98867.47;4901116;28;123747;-93
2022/05/15 03:00:45;;;;;;;3.00;2.03;;;17.80;53.80;;;18.34;40.29;98875.41;4894791;28;113318;-94
2022/05/15 03:03:11;;;;;;;2.67;2.40;;;17.80;54.00;;;18.33;40.47;98866.19;4886221;28;113964;-93
2022/05/15 03:05:38;;;;;;;3.80;2.13;;;17.70;54.00;;;18.32;40.64;98874.94;4908583;28;124533;-93
2022/05/15 03:08:05;;;;;;;2.73;2.20;;;17.70;54.20;;;18.31;40.67;98867.75;4891178;28;123661;-94
2022/05/15 03:10:31;;;;;;;2.83;2.03;;;17.70;54.30;;;18.29;40.85;98867.28;4893405;28;113412;-93
2022/05/15 03:13:00;;;;;;;3.00;2.10;;;17.70;54.50;;;18.30;40.92;98877.31;4889795;28;114020;-93
2022/05/15 03:15:26;;;;;;;3.20;2.33;;;17.70;55.30;;;18.26;40.83;98870.81;4892499;28;124059;-92
2022/05/15 03:17:53;;;;;;;5.30;2.87;;;17.70;54.80;;;18.24;41.13;98867.56;4915791;28;122824;-92
2022/05/15 03:20:20;;;;;;;2.80;2.13;;;17.60;54.80;;;18.21;41.27;98868.28;4870784;28;113912;-94
2022/05/15 03:22:46;;;;;;;2.87;2.30;;;17.60;55.00;;;18.17;41.20;98871.00;4893964;28;113921;-92
2022/05/15 03:25:13;;;;;;;3.13;2.83;;;17.60;55.10;;;18.15;41.29;98875.34;4944511;28;124197;-93
2022/05/15 03:27:40;;;;;;;2.37;2.17;;;17.60;55.20;;;18.13;41.40;98878.47;4940644;28;123688;-92
2022/05/15 03:30:08;;;;;;;2.73;2.43;;;17.50;55.30;;;18.12;41.42;98881.66;4937159;28;115432;-93
2022/05/15 03:32:35;;;;;;;2.30;2.10;;;17.50;55.40;;;18.10;41.50;98873.59;4944416;28;113593;-92
2022/05/15 03:35:03;;;;;;;3.00;2.00;;;17.50;55.50;;;18.08;41.46;98871.19;4940683;28;124079;-94
2022/05/15 03:37:30;;;;;;;5.43;2.70;;;17.50;55.70;;;18.06;41.79;98878.31;4947472;28;124319;-93
2022/05/15 03:39:57;;;;;;;3.40;2.20;;;17.50;55.70;;;18.03;41.61;98879.03;4934875;28;113648;-93
2022/05/15 03:42:26;;;;;;;3.73;2.47;;;17.50;55.80;;;18.02;41.75;98877.41;4959643;28;115015;-93
2022/05/15 03:44:53;;;;;;;3.00;2.60;;;17.40;55.90;;;18.00;41.87;98877.78;4943168;28;124179;-93
2022/05/15 03:47:20;;;;;;;2.73;2.33;;;17.40;56.00;;;17.98;41.97;98882.91;4948362;28;124077;-92
2022/05/15 03:49:47;;;;;;;4.43;2.50;;;17.40;56.10;;;17.95;42.06;98892.03;4934808;28;114036;-93
2022/05/15 03:52:14;;;;;;;2.60;2.40;;;17.40;56.30;;;17.92;42.21;98895.53;4945710;28;113132;-94
2022/05/15 03:54:41;;;;;;;2.30;2.10;;;17.30;56.30;;;17.91;42.06;98893.91;4959136;28;124408;-94
2022/05/15 03:57:08;;;;;;;2.83;2.23;;;17.30;56.40;;;17.89;42.09;98885.03;4961804;28;123075;-95
2022/05/15 03:59:39;;;;;;;3.10;2.50;;;17.30;56.50;;;17.87;42.51;98888.22;4987602;28;114088;-94
2022/05/15 04:02:09;;;;;;;3.30;2.60;;;17.30;56.80;;;17.80;42.59;98884.41;4984538;28;96838;-93
2022/05/15 04:04:38;;;;;;;3.33;2.67;;;17.20;57.00;;;17.72;42.67;98896.53;4969445;28;123865;-94
2022/05/15 04:07:06;;;;;;;5.37;3.40;;;17.20;57.30;;;17.60;43.19;98903.84;4978613;28;123653;-94
2022/05/15 04:09:33;;;;;;;4.10;3.10;;;17.10;57.80;;;17.47;43.36;98899.47;4964153;28;113636;-93
2022/05/15 04:12:00;;;;;;;6.30;3.70;;;17.00;57.80;;;17.31;43.94;98898.59;4970239;28;114037;-93
2022/05/15 04:14:27;;;;;;;5.83;3.90;;;16.80;58.50;;;17.12;44.50;98897.28;4963409;28;123798;-94
2022/05/15 04:16:54;;;;;;;5.47;3.40;;;16.70;59.00;;;17.04;44.39;98905.78;4982514;28;123892;-93
2022/05/15 04:19:20;;;;;;;3.70;2.80;;;16.60;58.70;;;17.05;44.27;98899.03;4965036;28;114805;-92
2022/05/15 04:21:47;;;;;;;4.90;2.63;;;16.50;58.80;;;17.05;44.23;98894.25;4981378;28;114761;-94
2022/05/15 04:24:16;;;;;;;6.10;2.97;;;16.50;59.00;;;17.04;44.48;98891.84;4963108;28;123252;-94
2022/05/15 04:26:46;;;;;;;4.93;3.27;;;16.50;59.30;;;17.01;44.64;98901.72;4996088;28;123790;-93
2022/05/15 04:29:13;;;;;;;4.57;3.47;;;16.50;59.40;;;16.94;44.99;98904.28;4967228;28;113822;-93
2022/05/15 04:31:39;;;;;;;3.40;2.97;;;16.40;59.60;;;16.91;44.54;98902.22;4960278;28;112989;-93
2022/05/15 04:34:07;;;;;;;2.83;2.50;;;16.40;59.40;;;16.93;44.75;98913.84;4971746;28;123556;-93
2022/05/15 04:36:34;;;;;;;3.70;2.23;;;16.40;59.60;;;16.94;44.56;98912.66;4967058;28;122671;-95
2022/05/15 04:39:03;;;;;;;3.90;2.70;;;16.40;59.60;;;16.96;44.55;98904.75;4970022;28;114550;-92
2022/05/15 04:41:30;;;;;;;2.60;2.10;;;16.40;59.60;;;17.03;44.52;98902.16;4964584;28;114593;-93
2022/05/15 04:43:58;;;;;;;3.93;2.43;;;16.40;59.50;;;17.09;44.30;98899.97;4969932;28;123583;-93
2022/05/15 04:46:29;;;;;;;2.80;2.40;;;16.50;59.60;;;17.11;44.56;98905.97;4969076;28;122854;-94
2022/05/15 04:48:56;;;;;;;4.50;2.57;;;16.50;59.80;;;17.11;44.54;98906.78;4967837;28;113776;-94
2022/05/15 04:51:23;;;;;;;2.50;2.30;;;16.50;59.80;;;17.10;44.78;98916.34;4979547;28;114208;-92
2022/05/15 04:53:49;;;;;;;3.60;2.23;;;16.50;59.80;;;17.11;44.54;98909.59;4985392;28;125010;-92
2022/05/15 04:56:16;;;;;;;5.70;2.80;;;16.50;59.80;;;17.11;44.59;98911.56;4967234;28;122774;-93
2022/05/15 04:58:43;;;;;;;2.60;2.40;;;16.50;59.90;;;17.11;44.46;98906.78;4976983;28;113161;-94
2022/05/15 05:01:11;;;;;;;3.50;2.30;;;16.50;59.90;;;17.12;44.42;98908.44;4969334;28;113057;-94
2022/05/15 05:03:38;;;;;;;3.47;2.60;;;16.50;59.90;;;17.18;44.41;98904.22;4970454;28;124080;-96
2022/05/15 05:06:07;;;;;;;4.10;2.20;;;16.60;60.00;;;17.27;44.36;98904.06;4966516;28;123894;-93
2022/05/15 05:08:34;;;;;;;3.30;1.97;;;16.60;60.00;;;17.35;44.22;98905.09;4955542;28;116048;-96
2022/05/15 05:11:00;;;;;;;4.30;2.33;;;16.70;60.00;;;17.42;44.17;98906.13;4989213;28;114087;-94
2022/05/15 05:13:27;;;;;;;2.40;2.20;;;16.80;60.00;;;17.51;43.92;98903.16;4978301;28;122065;-94
2022/05/15 05:15:53;;;;;;;3.30;2.40;;;16.80;59.90;;;17.58;43.78;98908.97;4961415;28;123073;-93
2022/05/15 05:18:20;;;;;;;2.63;1.90;;;16.90;59.90;;;17.67;43.79;98906.00;4977203;28;113887;-95
2022/05/15 05:20:47;;;;;;;3.20;2.70;;;17.00;60.00;;;17.71;43.90;98906.13;4977081;28;113153;-94
2022/05/15 05:23:14;;;;;;;4.00;2.60;;;17.00;60.00;;;17.71;44.00;98918.09;4979375;28;124076;-95
2022/05/15 05:25:41;;;;;;;2.20;2.00;;;17.00;59.80;;;17.72;43.71;98913.31;4959787;28;123787;-96
2022/05/15 05:28:08;;;;;;;2.10;1.90;;;17.10;59.80;;;17.79;43.83;98930.31;4971463;28;113461;-95
2022/05/15 05:30:37;;;;;;;3.10;2.07;;;17.10;59.80;;;17.86;43.68;98922.91;4990686;28;113905;-95
2022/05/15 05:33:06;;;;;;;2.40;1.93;;;17.20;59.90;;;17.94;43.54;98926.72;4960029;28;123343;-95
2022/05/15 05:35:36;;;;;;;3.33;2.33;;;17.20;59.90;;;18.00;43.56;98928.09;4960374;28;123187;-94
2022/05/15 05:38:04;;;;;;;6.03;2.80;;;17.30;60.00;;;18.05;43.52;98933.44;4991738;28;114119;-95
2022/05/15 05:40:52;;;;;;;3.00;2.30;;;17.40;60.00;;;18.03;43.56;98924.59;4996456;28;113329;-93
2022/05/15 05:43:19;;;;;;;3.00;2.60;;;17.40;60.10;;;18.04;43.59;98929.00;4991538;28;122115;-95
2022/05/15 05:45:45;;;;;;;4.70;3.03;;;17.40;60.00;;;18.04;43.63;98926.19;4987859;28;124599;-93
2022/05/15 05:48:12;;;;;;;2.20;2.00;;;17.40;59.90;;;18.09;43.51;98925.94;4992441;28;113780;-95
2022/05/15 05:50:39;;;;;;;4.00;3.10;;;17.40;60.00;;;18.13;43.62;98933.59;4988570;28;113641;-94
2022/05/15 05:53:06;;;;;;;3.27;2.60;;;17.50;60.10;;;18.16;43.57;98927.28;4981662;28;124834;-95
2022/05/15 05:55:33;;;;;;;3.53;2.30;;;17.50;60.20;;;18.20;43.50;98925.41;4981631;28;122027;-93
2022/05/15 05:58:00;;;;;;;3.40;2.57;;;17.50;60.20;;;18.21;43.58;98919.44;4970147;28;114018;-93
2022/05/15 06:00:32;;;;;;;3.07;2.33;;;17.60;60.20;;;18.26;43.33;98909.97;4974468;28;115050;-95
2022/05/15 06:05:46;;;;;;;3.20;2.63;;;17.70;60.30;;;18.35;43.39;98910.63;4967500;28;124850;-94
2022/05/15 06:08:13;;;;;;;3.90;2.80;;;17.70;60.20;;;18.38;43.13;98914.69;4962458;28;114934;-94
2022/05/15 06:10:41;;;;;;;4.20;2.90;;;17.80;60.20;;;18.42;43.29;98913.56;4964357;28;113378;-88
2022/05/15 06:13:12;;;;;;;3.50;2.37;;;17.70;60.00;;;18.47;43.23;98916.09;4961986;28;123574;-94
2022/05/15 06:15:40;;;;;;;3.53;2.60;;;16.60;59.00;;;18.48;43.11;98916.91;4960960;28;123854;-94
2022/05/15 06:18:27;;;;;;;3.63;2.37;;;17.80;60.00;;;18.49;43.21;98910.16;4980742;28;112272;-95
2022/05/15 06:20:57;;;;;;;3.60;2.77;;;17.90;60.20;;;18.59;43.17;98918.00;4984874;28;114490;-94
2022/05/15 06:23:24;;;;;;;4.80;2.70;;;18.00;60.20;;;18.69;43.04;98911.00;5013031;28;124060;-93
2022/05/15 06:25:50;;;;;;;2.53;2.30;;;18.00;60.20;;;18.79;42.85;98904.88;5007542;28;123155;-89
2022/05/15 06:28:19;;;;;;;4.23;2.50;;;18.10;60.10;;;18.88;42.68;98901.88;4969156;28;114706;-95
2022/05/15 06:30:45;;;;;;;3.03;2.10;;;18.10;60.00;;;18.93;42.71;98910.78;4984328;28;115022;-94
2022/05/15 06:33:13;;;;;;;14.33;2.93;;;18.20;60.00;;;19.04;42.74;98907.44;4949424;28;124141;-95
2022/05/15 06:35:40;;;;;;;4.03;2.77;;;18.30;60.10;;;19.10;42.52;98908.75;4967309;28;121937;-94
2022/05/15 06:38:08;;;;;;;2.60;2.40;;;18.40;60.00;;;19.17;42.51;98906.94;4975536;28;113401;-95
2022/05/15 06:40:35;;;;;;;2.30;2.10;;;18.40;59.90;;;19.27;42.35;98902.75;4955645;28;112953;-94
2022/05/15 06:43:03;;;;;;;7.90;3.20;;;18.50;59.90;;;19.37;42.35;98901.31;4967272;28;124225;-96
2022/05/15 06:45:30;;;;;;;3.17;2.37;;;18.60;59.90;;;19.43;42.19;98906.28;4952586;28;122826;-93
2022/05/15 06:47:57;;;;;;;2.83;2.20;;;18.70;59.80;;;19.50;42.20;98913.19;4970080;28;114283;-95
2022/05/15 06:50:26;;;;;;;3.23;2.43;;;18.80;59.90;;;19.57;42.00;98904.94;4987128;28;114981;-90
2022/05/15 06:52:53;;;;;;;3.63;2.40;;;18.80;59.90;;;19.62;42.24;98913.06;5001852;28;123430;-93
2022/05/15 06:55:22;;;;;;;5.20;2.70;;;18.90;60.00;;;19.69;42.34;98907.59;4993809;28;124323;-95
2022/05/15 06:57:50;;;;;;;4.90;2.80;;;19.00;60.10;;;19.73;42.22;98911.28;4968069;28;113910;-94
2022/05/15 07:00:21;;;;;;;4.73;2.60;;;19.00;60.00;;;19.77;42.28;98915.00;4962742;28;113903;-94
2022/05/15 07:02:48;;;;;;;4.50;3.00;;;19.10;60.00;;;19.82;42.23;98909.06;4953751;28;123471;-91
2022/05/15 07:05:25;;;;;;;3.53;2.33;;;19.20;60.00;;;19.86;41.96;98909.13;4953551;28;123165;-92
2022/05/15 07:07:52;;;;;;;3.50;2.90;;;19.20;59.90;;;19.91;42.03;98899.59;4967734;28;114128;-92
2022/05/15 07:10:20;;;;;;;6.53;2.63;;;19.20;59.90;;;19.94;41.88;98907.28;4989006;28;114044;-91
2022/05/15 07:12:46;;;;;;;3.80;2.27;;;19.30;59.70;;;20.00;41.61;98897.38;4973518;28;124517;-91
2022/05/15 07:15:13;;;;;;;3.27;2.07;;;19.30;59.60;;;20.10;41.59;98902.38;4953841;28;124055;-92
2022/05/15 07:17:40;;;;;;;3.40;2.33;;;19.40;59.70;;;20.21;41.52;98908.16;4999256;28;114923;-92
2022/05/15 07:20:08;;;;;;;2.70;2.40;;;19.50;59.60;;;20.26;41.58;98896.63;4989879;28;114059;-93
2022/05/15 07:22:36;;;;;;;4.77;2.40;;;19.60;59.50;;;20.34;41.33;98903.16;4972336;28;123821;-92
2022/05/15 07:25:04;;;;;;;4.93;2.30;;;19.60;59.20;;;20.39;40.90;98906.47;4973609;28;123577;-92
2022/05/15 07:27:31;;;;;;;2.80;2.00;;;19.70;59.00;;;20.42;40.67;98894.50;4974953;28;113533;-94
2022/05/15 07:29:58;;;;;;;2.00;1.80;;;19.80;58.60;;;20.53;40.73;98894.66;4970061;28;114091;-91
2022/05/15 07:32:25;;;;;;;2.33;1.80;;;19.80;58.60;;;20.68;40.54;98899.31;4966570;28;124583;-92
2022/05/15 07:34:51;;;;;;;3.40;2.23;;;18.80;57.70;;;20.80;40.25;98897.50;4972828;28;123847;-93
2022/05/15 07:37:17;;;;;;;4.17;1.80;;;20.00;58.20;;;20.91;39.84;98892.84;4971701;28;114595;-91
2022/05/15 07:39:44;;;;;;;1.70;1.57;;;20.20;58.20;;;21.03;39.47;98895.41;4974652;28;115155;-93
2022/05/15 07:42:13;;;;;;;2.60;1.70;;;20.30;57.90;;;21.11;39.60;98897.13;4978821;28;124466;-92
2022/05/15 07:44:40;;;;;;;3.50;1.93;;;20.40;57.60;;;21.20;39.49;98899.69;4973418;28;123969;-91
2022/05/15 07:47:08;;;;;;;2.10;1.57;;;20.40;57.20;;;21.28;39.11;98894.94;4965589;28;114614;-91
2022/05/15 07:49:37;;;;;;;2.33;1.70;;;20.50;57.20;;;21.39;39.36;98884.69;4991031;28;113381;-92
2022/05/15 07:52:05;;;;;;;3.47;1.97;;;20.60;57.20;;;21.51;39.23;98887.22;4976469;28;124436;-94
2022/05/15 07:54:33;;;;;;;2.00;1.50;;;20.70;57.00;;;21.63;38.40;98886.16;4976114;28;123199;-92
2022/05/15 07:57:01;;;;;;;3.40;1.57;;;20.80;56.80;;;21.71;37.97;98881.41;4992226;28;112198;-92
2022/05/15 07:59:29;;;;;;;2.50;1.80;;;20.90;56.20;;;21.71;37.97;98879.44;4972202;28;114350;-92
2022/05/15 08:01:59;;;;;;;2.60;1.90;;;21.00;55.90;;;21.72;38.06;98871.78;4970744;28;124055;-91
2022/05/15 08:04:26;;;;;;;2.73;1.80;;;21.00;55.60;;;21.75;37.62;98874.63;4973263;28;124135;-93
2022/05/15 08:09:40;;;;;;;2.60;1.90;;;21.10;55.30;;;21.89;37.46;98878.78;4975257;28;114065;-93
2022/05/15 08:12:07;;;;;;;2.20;1.43;;;21.20;55.30;;;21.98;37.75;98880.09;4976464;28;124051;-94
2022/05/15 08:14:34;;;;;;;2.27;1.40;;;21.20;55.20;;;22.04;37.77;98875.72;4976649;28;123739;-93
2022/05/15 08:17:01;;;;;;;3.57;1.67;;;21.30;55.00;;;22.12;37.44;98884.25;4970045;28;114218;-92
2022/05/15 08:25:02;;;;;;;4.00;1.87;;;21.50;54.90;;;22.33;37.17;98864.75;4991853;28;124148;-91
2022/05/15 08:27:29;;;;;;;2.30;1.50;;;21.60;55.00;;;22.44;37.24;98867.66;4974487;28;116688;-92
2022/05/15 08:29:55;;;;;;;2.40;1.60;;;21.70;54.90;;;22.50;37.17;98868.91;4982140;28;114766;-93
2022/05/15 08:32:41;;;;;;;1.57;1.30;;;21.80;54.70;;;22.56;36.85;98866.53;4975889;28;123012;-91
2022/05/15 08:35:08;;;;;;;2.23;1.60;;;21.80;54.60;;;22.65;36.70;98864.19;4988720;28;123548;-94
2022/05/15 08:37:36;;;;;;;3.30;1.90;;;21.90;54.50;;;22.70;36.80;98858.16;4989296;28;113382;-91
2022/05/15 08:40:03;;;;;;;2.73;2.00;;;22.00;54.50;;;22.80;36.86;98865.09;4980054;28;113356;-93
2022/05/15 08:42:50;;;;;;;4.00;2.40;;;22.10;54.50;;;22.86;36.56;98861.50;4975346;28;122609;-94
2022/05/15 08:45:18;;;;;;;3.47;2.10;;;22.20;54.40;;;22.92;36.47;98857.13;4975873;28;124025;-94
2022/05/15 08:47:48;;;;;;;3.67;2.30;;;22.20;54.10;;;22.98;36.30;98854.75;4973019;28;114207;-92
2022/05/15 08:50:37;;;;;;;4.97;3.10;;;22.30;53.90;;;22.99;35.98;98864.00;4972058;28;114016;-92
2022/05/15 08:53:15;;;;;;;3.13;2.20;;;22.40;53.30;;;23.03;36.31;98850.75;4971070;28;124157;-92
2022/05/15 08:55:50;;;;;;;2.27;1.80;;;22.40;53.60;;;23.11;35.97;98860.88;4994342;28;123966;-92
2022/05/15 08:58:35;;;;;;;2.70;1.83;;;22.40;53.60;;;23.20;36.28;98861.31;4977064;28;114357;-91
2022/05/15 09:01:06;;;;;;;4.30;2.20;;;22.50;53.70;;;23.29;35.95;98858.94;4969355;28;114275;-92
2022/05/15 09:03:38;;;;;;;2.60;1.83;;;22.60;53.60;;;23.36;36.10;98858.94;4991869;28;123297;-92
2022/05/15 09:06:22;;;;;;;3.80;1.73;;;22.70;53.70;;;23.43;36.06;98855.34;4975989;28;122916;-92
2022/05/15 09:09:10;;;;;;;2.37;1.60;;;22.80;53.50;;;23.48;35.75;98854.97;4974190;28;115240;-90
2022/05/15 09:11:56;;;;;;;2.10;1.50;;;22.80;53.40;;;23.56;35.77;98852.97;5006044;28;113409;-91
2022/05/15 09:15:07;;;;;;;3.00;1.97;;;22.90;53.50;;;23.63;35.54;98860.66;4961864;28;123090;-91
2022/05/15 09:17:58;;;;;;;2.20;1.73;;;23.00;53.10;;;23.69;35.71;98859.84;4972754;28;123610;-91
2022/05/15 09:20:58;;;;;;;2.87;1.53;;;23.00;53.20;;;23.76;35.44;98854.25;4971232;28;115078;-91
2022/05/15 09:23:49;;;;;;;2.20;1.80;;;23.10;53.20;;;23.81;35.07;98839.75;5006522;28;114607;-92
2022/05/15 09:26:20;;;;;;;2.83;1.73;;;23.20;52.80;;;23.83;34.98;98847.00;4991929;28;124057;-91
2022/05/15 09:29:01;;;;;;;3.00;1.73;;;23.20;52.40;;;23.86;35.29;98849.03;4970426;28;123760;-90
2022/05/15 09:31:40;;;;;;;2.40;1.77;;;23.20;52.50;;;23.96;35.41;98851.06;4974232;28;114886;-91
2022/05/15 09:34:25;;;;;;;2.70;1.60;;;23.30;52.80;;;24.03;35.13;98840.59;4988873;28;114201;-92
2022/05/15 09:38:26;;;;;;;1.87;1.40;;;23.40;52.60;;;24.10;34.99;98838.97;4971756;28;122811;-91
2022/05/15 09:39:48;;;;;;;2.73;1.80;;;23.50;52.40;;;24.17;34.30;98836.16;4976922;28;122799;-92
2022/05/15 09:45:26;;;;;;;3.40;1.80;;;23.60;51.40;;;24.24;34.18;98839.78;4973593;28;114610;-91
2022/05/15 09:47:52;;;;;;;1.60;1.50;;;23.60;51.20;;;24.30;33.99;98830.91;4969209;28;123444;-92
2022/05/15 09:50:48;;;;;;;1.93;1.53;;;23.70;51.00;;;24.35;34.02;98828.50;4969504;28;123869;-92
2022/05/15 09:53:23;;;;;;;4.47;1.90;;;23.70;50.80;;;24.41;33.50;98831.72;4970084;28;114270;-91
2022/05/15 09:56:01;;;;;;;2.70;1.90;;;23.80;50.50;;;24.45;33.68;98832.56;4961528;28;114051;-91
2022/05/15 09:58:41;;;;;;;2.80;1.50;;;23.80;50.40;;;24.50;33.70;98834.94;4957553;28;123401;-92
2022/05/15 10:01:39;;;;;;;4.13;1.73;;;23.90;50.70;;;24.57;33.47;98829.28;4985907;28;123036;-92
2022/05/15 10:04:30;;;;;;;2.60;1.47;;;24.00;50.50;;;24.64;33.52;98817.19;4954286;28;113682;-91
2022/05/15 10:07:00;;;;;;;2.47;1.50;;;24.00;50.50;;;24.74;33.58;98815.53;4964942;28;113012;-89
2022/05/15 10:09:46;;;;;;;1.60;1.40;;;24.10;50.50;;;24.80;33.71;98819.56;4978302;28;124871;-91
2022/05/15 10:12:28;;;;;;;1.90;1.10;;;23.60;49.90;;;24.85;33.67;98810.66;4970203;28;124271;-92
2022/05/15 10:15:36;;;;;;;2.90;1.30;;;24.20;50.40;;;24.90;33.52;98807.41;5004262;28;114897;-90
2022/05/15 10:18:03;;;;;;;2.80;1.73;;;24.30;50.40;;;24.97;33.23;98801.75;4980188;28;115171;-91
2022/05/15 10:20:35;;;;;;;3.50;1.50;;;24.30;50.30;;;25.03;33.13;98800.09;4975678;28;125759;-91
2022/05/15 10:27:10;;;;;;;1.70;1.47;;;24.40;50.20;;;25.11;33.25;98783.91;4960734;28;114763;-92
2022/05/15 10:30:08;;;;;;;2.90;1.70;;;24.50;50.10;;;25.14;32.97;98783.88;4962222;28;114047;-91
2022/05/15 10:32:41;;;;;;;3.17;1.40;;;24.60;50.10;;;25.21;33.17;98790.78;4961300;28;123791;-91
2022/05/15 10:35:14;;;;;;;1.80;1.57;;;24.60;50.00;;;25.28;33.14;98787.88;4983127;28;123700;-91
2022/05/15 10:38:17;;;;;;;2.80;1.70;;;24.20;49.50;;;25.34;33.00;98786.25;4950142;28;114788;-93
2022/05/15 10:40:54;;;;;;;3.43;1.40;;;24.70;49.70;;;25.40;32.56;98784.59;4970414;28;113971;-92
2022/05/15 10:44:12;;;;;;;3.47;1.80;;;24.80;49.40;;;25.45;32.75;98775.69;5002146;28;124122;-92
2022/05/15 10:46:45;;;;;;;3.07;1.67;;;24.90;49.40;;;25.50;32.33;98777.28;4941181;28;123600;-92
2022/05/15 10:49:17;;;;;;;2.00;1.50;;;24.90;48.70;;;25.54;32.21;98776.03;4997817;28;114382;-92